sensor_id;sensor_type;location;lat;lon;timestamp;pressure;altitude;pressure_sealevel;temperature;humidity
68889;BME280;55930;47.412;8.790;2022-07-25T00:00:34;94570.38;;;19.56;91.69
68889;BME280;55930;47.412;8.790;2022-07-25T00:03:00;94567.50;;;19.54;92.05
68889;BME280;55930;47.412;8.790;2022-07-25T00:05:26;94570.25;;;19.48;93.23
68889;BME280;55930;47.412;8.790;2022-07-25T00:07:51;94571.00;;;19.48;92.80
68889;BME280;55930;47.412;8.790;2022-07-25T00:10:16;94561.97;;;19.46;93.47
68889;BME280;55930;47.412;8.790;2022-07-25T00:12:42;94566.84;;;19.47;93.45
68889;BME280;55930;47.412;8.790;2022-07-25T00:15:09;94559.94;;;19.52;93.70
68889;BME280;55930;47.412;8.790;2022-07-25T00:17:35;94559.78;;;19.44;94.05
68889;BME280;55930;47.412;8.790;2022-07-25T00:20:00;94554.91;;;19.43;95.00
68889;BME280;55930;47.412;8.790;2022-07-25T00:22:26;94551.81;;;19.39;94.74
68889;BME280;55930;47.412;8.790;2022-07-25T00:24:51;94545.41;;;19.42;94.65
68889;BME280;55930;47.412;8.790;2022-07-25T00:27:17;94550.06;;;19.41;94.72
68889;BME280;55930;47.412;8.790;2022-07-25T00:29:42;94552.84;;;19.36;94.34
68889;BME280;55930;47.412;8.790;2022-07-25T00:32:08;94553.97;;;19.40;94.17
68889;BME280;55930;47.412;8.790;2022-07-25T00:34:36;94544.16;;;19.43;93.51
68889;BME280;55930;47.412;8.790;2022-07-25T00:37:01;94543.88;;;19.46;93.64
68889;BME280;55930;47.412;8.790;2022-07-25T00:39:26;94541.78;;;19.39;94.41
68889;BME280;55930;47.412;8.790;2022-07-25T00:41:52;94536.41;;;19.39;94.90
68889;BME280;55930;47.412;8.790;2022-07-25T00:44:26;94545.22;;;19.53;93.05
68889;BME280;55930;47.412;8.790;2022-07-25T00:46:53;94538.06;;;19.42;93.78
68889;BME280;55930;47.412;8.790;2022-07-25T00:49:19;94541.97;;;19.41;92.95
68889;BME280;55930;47.412;8.790;2022-07-25T00:51:45;94541.06;;;19.39;93.07
68889;BME280;55930;47.412;8.790;2022-07-25T00:54:11;94534.84;;;19.31;93.94
68889;BME280;55930;47.412;8.790;2022-07-25T00:56:37;94537.22;;;19.34;93.82
68889;BME280;55930;47.412;8.790;2022-07-25T00:59:03;94545.00;;;19.38;93.26
68889;BME280;55930;47.412;8.790;2022-07-25T01:01:31;94538.84;;;19.24;93.93
68889;BME280;55930;47.412;8.790;2022-07-25T01:04:02;94539.50;;;19.30;93.46
68889;BME280;55930;47.412;8.790;2022-07-25T01:06:30;94536.72;;;19.36;93.03
68889;BME280;55930;47.412;8.790;2022-07-25T01:08:58;94538.47;;;19.33;93.29
68889;BME280;55930;47.412;8.790;2022-07-25T01:11:26;94537.72;;;19.33;93.00
68889;BME280;55930;47.412;8.790;2022-07-25T01:13:52;94544.34;;;19.32;93.87
68889;BME280;55930;47.412;8.790;2022-07-25T01:16:17;94535.25;;;19.22;92.71
68889;BME280;55930;47.412;8.790;2022-07-25T01:18:43;94542.03;;;19.09;92.68
68889;BME280;55930;47.412;8.790;2022-07-25T01:21:09;94543.09;;;19.06;93.07
68889;BME280;55930;47.412;8.790;2022-07-25T01:23:34;94543.81;;;19.07;93.62
68889;BME280;55930;47.412;8.790;2022-07-25T01:26:02;94537.28;;;19.02;93.77
68889;BME280;55930;47.412;8.790;2022-07-25T01:28:28;94543.75;;;18.81;95.72
68889;BME280;55930;47.412;8.790;2022-07-25T01:30:53;94534.56;;;18.89;94.61
68889;BME280;55930;47.412;8.790;2022-07-25T01:33:20;94541.00;;;18.99;93.89
68889;BME280;55930;47.412;8.790;2022-07-25T01:35:47;94543.88;;;18.88;95.28
68889;BME280;55930;47.412;8.790;2022-07-25T01:38:15;94551.28;;;18.82;96.77
68889;BME280;55930;47.412;8.790;2022-07-25T01:40:41;94541.69;;;18.87;95.79
68889;BME280;55930;47.412;8.790;2022-07-25T01:43:07;94541.56;;;18.79;95.96
68889;BME280;55930;47.412;8.790;2022-07-25T01:45:33;94542.06;;;18.78;95.48
68889;BME280;55930;47.412;8.790;2022-07-25T01:47:59;94535.31;;;18.71;96.19
68889;BME280;55930;47.412;8.790;2022-07-25T01:50:24;94538.22;;;18.73;95.75
68889;BME280;55930;47.412;8.790;2022-07-25T01:52:50;94541.66;;;18.73;95.17
68889;BME280;55930;47.412;8.790;2022-07-25T01:55:18;94543.03;;;18.61;95.50
68889;BME280;55930;47.412;8.790;2022-07-25T01:57:43;94530.47;;;18.51;96.62
68889;BME280;55930;47.412;8.790;2022-07-25T02:00:10;94534.19;;;18.66;96.01
68889;BME280;55930;47.412;8.790;2022-07-25T02:02:38;94539.56;;;18.66;96.46
68889;BME280;55930;47.412;8.790;2022-07-25T02:05:06;94534.19;;;18.66;97.05
68889;BME280;55930;47.412;8.790;2022-07-25T02:07:32;94524.88;;;18.67;98.11
68889;BME280;55930;47.412;8.790;2022-07-25T02:09:57;94531.50;;;18.66;98.08
68889;BME280;55930;47.412;8.790;2022-07-25T02:12:23;94523.31;;;18.59;98.98
68889;BME280;55930;47.412;8.790;2022-07-25T02:14:48;94515.50;;;18.55;98.65
68889;BME280;55930;47.412;8.790;2022-07-25T02:17:13;94517.00;;;18.56;99.16
68889;BME280;55930;47.412;8.790;2022-07-25T02:19:39;94517.13;;;18.64;97.94
68889;BME280;55930;47.412;8.790;2022-07-25T02:22:04;94512.34;;;18.57;97.66
68889;BME280;55930;47.412;8.790;2022-07-25T02:24:32;94509.66;;;18.57;97.68
68889;BME280;55930;47.412;8.790;2022-07-25T02:26:57;94513.53;;;18.56;97.76
68889;BME280;55930;47.412;8.790;2022-07-25T02:29:23;94515.75;;;18.57;97.75
68889;BME280;55930;47.412;8.790;2022-07-25T02:31:48;94515.97;;;18.59;98.30
68889;BME280;55930;47.412;8.790;2022-07-25T02:34:16;94509.06;;;18.64;97.79
68889;BME280;55930;47.412;8.790;2022-07-25T02:36:41;94519.06;;;18.63;98.13
68889;BME280;55930;47.412;8.790;2022-07-25T02:39:07;94508.97;;;18.69;97.64
68889;BME280;55930;47.412;8.790;2022-07-25T02:41:32;94507.72;;;18.70;96.98
68889;BME280;55930;47.412;8.790;2022-07-25T02:43:58;94501.13;;;18.71;95.96
68889;BME280;55930;47.412;8.790;2022-07-25T02:46:23;94500.91;;;18.69;96.17
68889;BME280;55930;47.412;8.790;2022-07-25T02:48:48;94500.63;;;18.73;95.60
68889;BME280;55930;47.412;8.790;2022-07-25T02:51:14;94498.09;;;18.62;96.42
68889;BME280;55930;47.412;8.790;2022-07-25T02:53:39;94493.75;;;18.59;95.88
68889;BME280;55930;47.412;8.790;2022-07-25T02:56:05;94492.81;;;18.56;95.82
68889;BME280;55930;47.412;8.790;2022-07-25T02:58:30;94489.16;;;18.54;96.20
68889;BME280;55930;47.412;8.790;2022-07-25T03:00:56;94490.59;;;18.55;96.07
68889;BME280;55930;47.412;8.790;2022-07-25T03:03:21;94485.22;;;18.55;95.79
68889;BME280;55930;47.412;8.790;2022-07-25T03:05:46;94487.06;;;18.65;95.67
68889;BME280;55930;47.412;8.790;2022-07-25T03:08:12;94482.91;;;18.64;96.57
68889;BME280;55930;47.412;8.790;2022-07-25T03:10:37;94488.06;;;18.62;97.26
68889;BME280;55930;47.412;8.790;2022-07-25T03:13:03;94482.47;;;18.60;96.98
68889;BME280;55930;47.412;8.790;2022-07-25T03:15:28;94485.72;;;18.53;97.59
68889;BME280;55930;47.412;8.790;2022-07-25T03:17:53;94485.59;;;18.64;98.55
68889;BME280;55930;47.412;8.790;2022-07-25T03:20:22;94487.34;;;18.62;98.99
68889;BME280;55930;47.412;8.790;2022-07-25T03:22:48;94483.94;;;18.61;99.65
68889;BME280;55930;47.412;8.790;2022-07-25T03:25:16;94488.56;;;18.61;98.81
68889;BME280;55930;47.412;8.790;2022-07-25T03:27:41;94491.38;;;18.68;98.12
68889;BME280;55930;47.412;8.790;2022-07-25T03:30:07;94486.72;;;18.69;97.83
68889;BME280;55930;47.412;8.790;2022-07-25T03:32:33;94488.91;;;18.70;97.85
68889;BME280;55930;47.412;8.790;2022-07-25T03:34:58;94494.28;;;18.70;98.27
68889;BME280;55930;47.412;8.790;2022-07-25T03:37:24;94492.66;;;18.67;97.74
68889;BME280;55930;47.412;8.790;2022-07-25T03:39:49;94489.50;;;18.63;97.08
68889;BME280;55930;47.412;8.790;2022-07-25T03:42:15;94488.63;;;18.55;96.63
68889;BME280;55930;47.412;8.790;2022-07-25T03:44:40;94485.88;;;18.61;96.49
68889;BME280;55930;47.412;8.790;2022-07-25T03:47:06;94484.50;;;18.54;97.41
68889;BME280;55930;47.412;8.790;2022-07-25T03:49:31;94485.50;;;18.70;96.95
68889;BME280;55930;47.412;8.790;2022-07-25T03:51:57;94488.34;;;18.91;96.01
68889;BME280;55930;47.412;8.790;2022-07-25T03:54:22;94484.66;;;19.20;93.87
68889;BME280;55930;47.412;8.790;2022-07-25T03:56:49;94485.69;;;19.30;93.70
68889;BME280;55930;47.412;8.790;2022-07-25T03:59:16;94486.63;;;19.33;93.22
68889;BME280;55930;47.412;8.790;2022-07-25T04:01:43;94485.81;;;19.38;92.85
68889;BME280;55930;47.412;8.790;2022-07-25T04:04:11;94483.94;;;19.33;94.33
68889;BME280;55930;47.412;8.790;2022-07-25T04:06:38;94491.28;;;19.32;93.44
68889;BME280;55930;47.412;8.790;2022-07-25T04:09:04;94488.78;;;19.34;93.83
68889;BME280;55930;47.412;8.790;2022-07-25T04:11:29;94485.81;;;19.38;93.76
68889;BME280;55930;47.412;8.790;2022-07-25T04:13:55;94493.16;;;19.51;92.91
68889;BME280;55930;47.412;8.790;2022-07-25T04:16:21;94493.34;;;19.66;92.94
68889;BME280;55930;47.412;8.790;2022-07-25T04:18:46;94491.59;;;19.68;92.22
68889;BME280;55930;47.412;8.790;2022-07-25T04:21:12;94492.00;;;19.72;91.82
68889;BME280;55930;47.412;8.790;2022-07-25T04:23:37;94485.88;;;19.72;92.17
68889;BME280;55930;47.412;8.790;2022-07-25T04:26:03;94489.63;;;19.69;91.82
68889;BME280;55930;47.412;8.790;2022-07-25T04:28:29;94489.13;;;19.70;92.27
68889;BME280;55930;47.412;8.790;2022-07-25T04:30:55;94486.31;;;19.76;92.27
68889;BME280;55930;47.412;8.790;2022-07-25T04:33:21;94481.53;;;19.82;91.18
68889;BME280;55930;47.412;8.790;2022-07-25T04:35:46;94482.63;;;20.00;89.84
68889;BME280;55930;47.412;8.790;2022-07-25T04:38:12;94494.31;;;20.15;89.20
68889;BME280;55930;47.412;8.790;2022-07-25T04:40:40;94486.78;;;20.01;90.67
68889;BME280;55930;47.412;8.790;2022-07-25T04:43:06;94482.44;;;19.98;91.24
68889;BME280;55930;47.412;8.790;2022-07-25T04:45:32;94488.50;;;20.11;90.88
68889;BME280;55930;47.412;8.790;2022-07-25T04:47:59;94483.91;;;20.19;90.17
68889;BME280;55930;47.412;8.790;2022-07-25T04:50:24;94491.16;;;20.24;90.16
68889;BME280;55930;47.412;8.790;2022-07-25T04:52:50;94476.84;;;20.30;89.64
68889;BME280;55930;47.412;8.790;2022-07-25T04:55:15;94477.00;;;20.45;88.37
68889;BME280;55930;47.412;8.790;2022-07-25T04:57:43;94483.53;;;20.70;86.90
68889;BME280;55930;47.412;8.790;2022-07-25T05:00:09;94479.63;;;20.99;83.89
68889;BME280;55930;47.412;8.790;2022-07-25T05:02:35;94487.03;;;20.78;86.74
68889;BME280;55930;47.412;8.790;2022-07-25T05:05:01;94485.25;;;20.81;87.28
68889;BME280;55930;47.412;8.790;2022-07-25T05:07:26;94493.91;;;20.87;85.92
68889;BME280;55930;47.412;8.790;2022-07-25T05:09:52;94487.19;;;21.01;86.24
68889;BME280;55930;47.412;8.790;2022-07-25T05:12:18;94493.03;;;21.13;85.89
68889;BME280;55930;47.412;8.790;2022-07-25T05:14:44;94495.38;;;21.16;85.24
68889;BME280;55930;47.412;8.790;2022-07-25T05:17:09;94492.78;;;21.52;82.64
68889;BME280;55930;47.412;8.790;2022-07-25T05:19:35;94500.50;;;21.56;82.36
68889;BME280;55930;47.412;8.790;2022-07-25T05:22:01;94496.84;;;21.74;81.00
68889;BME280;55930;47.412;8.790;2022-07-25T05:24:26;94499.75;;;21.84;80.55
68889;BME280;55930;47.412;8.790;2022-07-25T05:26:52;94496.03;;;21.94;80.23
68889;BME280;55930;47.412;8.790;2022-07-25T05:29:17;94490.63;;;21.94;80.35
68889;BME280;55930;47.412;8.790;2022-07-25T05:31:43;94493.56;;;22.04;79.65
68889;BME280;55930;47.412;8.790;2022-07-25T05:34:09;94497.19;;;22.06;80.11
68889;BME280;55930;47.412;8.790;2022-07-25T05:36:36;94492.53;;;22.14;78.94
68889;BME280;55930;47.412;8.790;2022-07-25T05:39:02;94495.78;;;22.21;80.17
68889;BME280;55930;47.412;8.790;2022-07-25T05:41:28;94493.66;;;22.27;79.89
68889;BME280;55930;47.412;8.790;2022-07-25T05:43:53;94493.66;;;22.34;79.30
68889;BME280;55930;47.412;8.790;2022-07-25T05:46:21;94496.22;;;22.47;79.08
68889;BME280;55930;47.412;8.790;2022-07-25T05:48:49;94495.16;;;22.58;76.92
68889;BME280;55930;47.412;8.790;2022-07-25T05:51:14;94503.09;;;22.71;76.69
68889;BME280;55930;47.412;8.790;2022-07-25T05:53:40;94504.91;;;22.99;76.04
68889;BME280;55930;47.412;8.790;2022-07-25T05:56:05;94503.84;;;23.17;75.30
68889;BME280;55930;47.412;8.790;2022-07-25T05:58:31;94508.19;;;23.20;75.15
68889;BME280;55930;47.412;8.790;2022-07-25T06:00:57;94507.78;;;23.24;73.85
68889;BME280;55930;47.412;8.790;2022-07-25T06:03:23;94494.81;;;23.38;72.55
68889;BME280;55930;47.412;8.790;2022-07-25T06:05:50;94497.50;;;23.45;71.27
68889;BME280;55930;47.412;8.790;2022-07-25T06:08:16;94505.25;;;23.49;72.70
68889;BME280;55930;47.412;8.790;2022-07-25T06:10:41;94504.97;;;23.92;71.40
68889;BME280;55930;47.412;8.790;2022-07-25T06:13:07;94505.28;;;24.04;71.30
68889;BME280;55930;47.412;8.790;2022-07-25T06:15:33;94503.09;;;24.10;68.82
68889;BME280;55930;47.412;8.790;2022-07-25T06:17:58;94499.50;;;24.08;68.88
68889;BME280;55930;47.412;8.790;2022-07-25T06:20:23;94496.31;;;24.34;68.13
68889;BME280;55930;47.412;8.790;2022-07-25T06:22:49;94498.91;;;24.57;69.74
68889;BME280;55930;47.412;8.790;2022-07-25T06:25:14;94499.16;;;24.68;68.42
68889;BME280;55930;47.412;8.790;2022-07-25T06:27:40;94500.13;;;24.88;67.52
68889;BME280;55930;47.412;8.790;2022-07-25T06:30:06;94499.34;;;25.20;65.65
68889;BME280;55930;47.412;8.790;2022-07-25T06:32:32;94497.78;;;25.34;66.91
68889;BME280;55930;47.412;8.790;2022-07-25T06:35:00;94501.31;;;25.44;63.82
68889;BME280;55930;47.412;8.790;2022-07-25T06:37:26;94492.59;;;25.80;63.29
68889;BME280;55930;47.412;8.790;2022-07-25T06:39:51;94487.72;;;25.79;62.83
68889;BME280;55930;47.412;8.790;2022-07-25T06:42:17;94490.00;;;26.17;62.71
68889;BME280;55930;47.412;8.790;2022-07-25T06:44:44;94483.34;;;26.27;61.22
68889;BME280;55930;47.412;8.790;2022-07-25T06:47:10;94483.19;;;26.52;61.13
68889;BME280;55930;47.412;8.790;2022-07-25T06:49:40;94479.31;;;26.82;60.00
68889;BME280;55930;47.412;8.790;2022-07-25T06:52:06;94480.16;;;27.12;59.38
68889;BME280;55930;47.412;8.790;2022-07-25T06:54:32;94473.56;;;26.78;57.95
68889;BME280;55930;47.412;8.790;2022-07-25T06:56:57;94468.00;;;27.32;56.79
68889;BME280;55930;47.412;8.790;2022-07-25T06:59:26;94466.72;;;27.52;56.06
68889;BME280;55930;47.412;8.790;2022-07-25T07:01:51;94474.34;;;27.73;56.77
68889;BME280;55930;47.412;8.790;2022-07-25T07:04:17;94478.50;;;28.03;55.05
68889;BME280;55930;47.412;8.790;2022-07-25T07:06:42;94466.91;;;27.93;55.49
68889;BME280;55930;47.412;8.790;2022-07-25T07:09:08;94467.88;;;27.78;53.78
68889;BME280;55930;47.412;8.790;2022-07-25T07:11:34;94465.84;;;28.27;53.54
68889;BME280;55930;47.412;8.790;2022-07-25T07:14:01;94463.94;;;28.39;53.47
68889;BME280;55930;47.412;8.790;2022-07-25T07:16:28;94460.81;;;28.13;51.25
68889;BME280;55930;47.412;8.790;2022-07-25T07:18:53;94457.59;;;28.55;50.37
68889;BME280;55930;47.412;8.790;2022-07-25T07:21:19;94451.28;;;28.43;52.18
68889;BME280;55930;47.412;8.790;2022-07-25T07:23:46;94450.50;;;29.24;49.07
68889;BME280;55930;47.412;8.790;2022-07-25T07:26:12;94458.34;;;28.87;50.06
68889;BME280;55930;47.412;8.790;2022-07-25T07:28:38;94460.50;;;28.88;47.02
68889;BME280;55930;47.412;8.790;2022-07-25T07:31:03;94457.66;;;28.67;48.04
68889;BME280;55930;47.412;8.790;2022-07-25T07:33:29;94461.66;;;29.38;45.58
68889;BME280;55930;47.412;8.790;2022-07-25T07:35:55;94469.19;;;29.70;47.89
68889;BME280;55930;47.412;8.790;2022-07-25T07:38:22;94466.75;;;29.22;48.66
68889;BME280;55930;47.412;8.790;2022-07-25T07:40:47;94463.56;;;29.25;49.54
68889;BME280;55930;47.412;8.790;2022-07-25T07:43:13;94467.00;;;29.36;48.29
68889;BME280;55930;47.412;8.790;2022-07-25T07:45:38;94459.44;;;29.67;46.53
68889;BME280;55930;47.412;8.790;2022-07-25T07:48:05;94461.66;;;29.59;48.34
68889;BME280;55930;47.412;8.790;2022-07-25T07:50:30;94466.66;;;30.17;45.47
68889;BME280;55930;47.412;8.790;2022-07-25T07:52:56;94465.25;;;30.39;43.29
68889;BME280;55930;47.412;8.790;2022-07-25T07:55:22;94458.03;;;30.55;43.93
68889;BME280;55930;47.412;8.790;2022-07-25T07:58:07;94463.72;;;30.48;43.08
68889;BME280;55930;47.412;8.790;2022-07-25T08:00:35;94466.72;;;30.52;43.22
68889;BME280;55930;47.412;8.790;2022-07-25T08:03:04;94465.06;;;30.81;43.19
68889;BME280;55930;47.412;8.790;2022-07-25T08:05:33;94462.94;;;31.15;42.21
68889;BME280;55930;47.412;8.790;2022-07-25T08:07:59;94469.94;;;31.30;42.10
68889;BME280;55930;47.412;8.790;2022-07-25T08:10:31;94463.66;;;30.92;42.42
68889;BME280;55930;47.412;8.790;2022-07-25T08:13:00;94463.03;;;31.05;42.57
68889;BME280;55930;47.412;8.790;2022-07-25T08:15:25;94462.00;;;30.87;40.56
68889;BME280;55930;47.412;8.790;2022-07-25T08:17:51;94465.31;;;31.21;38.74
68889;BME280;55930;47.412;8.790;2022-07-25T08:20:20;94468.19;;;32.73;38.35
68889;BME280;55930;47.412;8.790;2022-07-25T08:22:49;94466.13;;;33.14;36.48
68889;BME280;55930;47.412;8.790;2022-07-25T08:25:18;94482.16;;;32.65;36.68
68889;BME280;55930;47.412;8.790;2022-07-25T08:27:46;94473.00;;;32.60;38.13
68889;BME280;55930;47.412;8.790;2022-07-25T08:30:14;94472.34;;;32.87;35.96
68889;BME280;55930;47.412;8.790;2022-07-25T08:32:54;94471.44;;;32.96;38.93
68889;BME280;55930;47.412;8.790;2022-07-25T08:35:21;94480.03;;;32.24;37.12
68889;BME280;55930;47.412;8.790;2022-07-25T08:37:47;94481.56;;;31.53;36.75
68889;BME280;55930;47.412;8.790;2022-07-25T08:40:15;94480.63;;;31.98;37.47
68889;BME280;55930;47.412;8.790;2022-07-25T08:42:41;94478.94;;;32.68;35.66
68889;BME280;55930;47.412;8.790;2022-07-25T08:45:09;94473.03;;;33.56;34.74
68889;BME280;55930;47.412;8.790;2022-07-25T08:47:39;94478.19;;;33.34;34.63
68889;BME280;55930;47.412;8.790;2022-07-25T08:50:09;94488.75;;;34.71;33.61
68889;BME280;55930;47.412;8.790;2022-07-25T08:52:35;94494.16;;;35.65;32.56
68889;BME280;55930;47.412;8.790;2022-07-25T08:55:06;94493.34;;;34.51;33.15
68889;BME280;55930;47.412;8.790;2022-07-25T08:57:33;94491.13;;;35.42;29.97
68889;BME280;55930;47.412;8.790;2022-07-25T09:00:00;94494.69;;;35.62;32.09
68889;BME280;55930;47.412;8.790;2022-07-25T09:02:27;94489.97;;;35.98;33.07
68889;BME280;55930;47.412;8.790;2022-07-25T09:04:53;94492.72;;;35.80;32.59
68889;BME280;55930;47.412;8.790;2022-07-25T09:07:51;94481.56;;;37.06;29.55
68889;BME280;55930;47.412;8.790;2022-07-25T09:13:11;94473.66;;;36.59;28.18
68889;BME280;55930;47.412;8.790;2022-07-25T09:18:10;94478.50;;;38.01;27.66
68889;BME280;55930;47.412;8.790;2022-07-25T09:23:12;94486.66;;;36.37;29.45
68889;BME280;55930;47.412;8.790;2022-07-25T09:25:38;94486.13;;;35.38;30.25
68889;BME280;55930;47.412;8.790;2022-07-25T09:28:16;94486.81;;;36.98;27.98
68889;BME280;55930;47.412;8.790;2022-07-25T09:30:56;94486.38;;;37.45;26.71
68889;BME280;55930;47.412;8.790;2022-07-25T09:33:23;94487.28;;;37.72;27.47
68889;BME280;55930;47.412;8.790;2022-07-25T09:35:49;94486.91;;;38.03;26.76
68889;BME280;55930;47.412;8.790;2022-07-25T09:38:16;94484.25;;;37.64;26.21
68889;BME280;55930;47.412;8.790;2022-07-25T09:41:01;94474.72;;;38.58;24.71
68889;BME280;55930;47.412;8.790;2022-07-25T09:43:43;94477.31;;;38.52;26.93
68889;BME280;55930;47.412;8.790;2022-07-25T09:46:10;94484.06;;;38.01;27.12
68889;BME280;55930;47.412;8.790;2022-07-25T09:48:38;94482.16;;;37.42;26.27
68889;BME280;55930;47.412;8.790;2022-07-25T09:51:07;94477.22;;;37.61;26.74
68889;BME280;55930;47.412;8.790;2022-07-25T09:53:32;94480.72;;;38.98;24.04
68889;BME280;55930;47.412;8.790;2022-07-25T09:55:58;94469.69;;;38.28;24.62
68889;BME280;55930;47.412;8.790;2022-07-25T09:58:25;94472.63;;;39.06;25.22
68889;BME280;55930;47.412;8.790;2022-07-25T10:00:54;94465.75;;;38.59;25.48
68889;BME280;55930;47.412;8.790;2022-07-25T10:03:44;94467.09;;;38.82;25.08
68889;BME280;55930;47.412;8.790;2022-07-25T10:09:16;94470.72;;;40.56;22.79
68889;BME280;55930;47.412;8.790;2022-07-25T10:12:07;94464.34;;;37.69;24.27
68889;BME280;55930;47.412;8.790;2022-07-25T10:14:34;94471.28;;;39.61;23.46
68889;BME280;55930;47.412;8.790;2022-07-25T10:17:00;94456.66;;;38.57;22.96
68889;BME280;55930;47.412;8.790;2022-07-25T10:19:39;94458.63;;;37.85;24.52
68889;BME280;55930;47.412;8.790;2022-07-25T10:22:08;94459.78;;;37.36;24.60
68889;BME280;55930;47.412;8.790;2022-07-25T10:24:37;94456.81;;;37.10;24.20
68889;BME280;55930;47.412;8.790;2022-07-25T10:27:08;94457.75;;;37.17;25.20
68889;BME280;55930;47.412;8.790;2022-07-25T10:29:38;94460.03;;;37.03;23.95
68889;BME280;55930;47.412;8.790;2022-07-25T10:32:09;94451.09;;;37.24;23.05
68889;BME280;55930;47.412;8.790;2022-07-25T10:34:35;94453.28;;;37.28;22.93
68889;BME280;55930;47.412;8.790;2022-07-25T10:37:12;94459.63;;;38.17;23.67
68889;BME280;55930;47.412;8.790;2022-07-25T10:39:42;94450.38;;;37.24;23.24
68889;BME280;55930;47.412;8.790;2022-07-25T10:42:12;94452.19;;;38.70;22.04
68889;BME280;55930;47.412;8.790;2022-07-25T10:44:41;94459.97;;;40.40;20.74
68889;BME280;55930;47.412;8.790;2022-07-25T10:47:11;94456.97;;;40.00;19.57
68889;BME280;55930;47.412;8.790;2022-07-25T10:49:40;94446.69;;;40.69;20.56
68889;BME280;55930;47.412;8.790;2022-07-25T10:52:06;94441.63;;;39.97;20.26
68889;BME280;55930;47.412;8.790;2022-07-25T10:54:37;94435.81;;;41.57;19.15
68889;BME280;55930;47.412;8.790;2022-07-25T10:57:04;94440.16;;;41.28;18.79
68889;BME280;55930;47.412;8.790;2022-07-25T10:59:37;94443.63;;;40.90;19.32
68889;BME280;55930;47.412;8.790;2022-07-25T11:02:05;94446.13;;;40.76;19.36
68889;BME280;55930;47.412;8.790;2022-07-25T11:04:34;94431.19;;;40.28;19.83
68889;BME280;55930;47.412;8.790;2022-07-25T11:07:13;94426.75;;;42.03;19.01
68889;BME280;55930;47.412;8.790;2022-07-25T11:09:42;94425.22;;;40.75;19.13
68889;BME280;55930;47.412;8.790;2022-07-25T11:12:07;94425.72;;;40.02;20.40
68889;BME280;55930;47.412;8.790;2022-07-25T11:14:37;94427.72;;;39.69;20.16
68889;BME280;55930;47.412;8.790;2022-07-25T11:17:23;94425.06;;;40.03;21.60
68889;BME280;55930;47.412;8.790;2022-07-25T11:22:23;94425.03;;;41.01;19.39
68889;BME280;55930;47.412;8.790;2022-07-25T11:24:48;94413.50;;;41.57;19.28
68889;BME280;55930;47.412;8.790;2022-07-25T11:27:23;94427.72;;;41.35;18.54
68889;BME280;55930;47.412;8.790;2022-07-25T11:29:48;94409.75;;;41.02;17.55
68889;BME280;55930;47.412;8.790;2022-07-25T11:32:14;94405.91;;;42.08;18.43
68889;BME280;55930;47.412;8.790;2022-07-25T11:34:46;94402.53;;;42.13;19.14
68889;BME280;55930;47.412;8.790;2022-07-25T11:37:13;94397.41;;;41.95;16.95
68889;BME280;55930;47.412;8.790;2022-07-25T11:39:44;94399.28;;;41.41;18.94
68889;BME280;55930;47.412;8.790;2022-07-25T11:42:12;94400.41;;;41.66;19.53
68889;BME280;55930;47.412;8.790;2022-07-25T11:44:51;94388.22;;;42.97;17.69
68889;BME280;55930;47.412;8.790;2022-07-25T11:47:43;94384.72;;;41.88;18.41
68889;BME280;55930;47.412;8.790;2022-07-25T11:50:11;94382.72;;;43.05;17.89
68889;BME280;55930;47.412;8.790;2022-07-25T11:52:39;94380.31;;;41.73;18.00
68889;BME280;55930;47.412;8.790;2022-07-25T11:55:12;94372.25;;;43.06;16.49
68889;BME280;55930;47.412;8.790;2022-07-25T11:57:43;94384.69;;;42.93;18.57
68889;BME280;55930;47.412;8.790;2022-07-25T12:00:19;94373.09;;;43.21;16.92
68889;BME280;55930;47.412;8.790;2022-07-25T12:02:46;94374.41;;;43.13;16.54
68889;BME280;55930;47.412;8.790;2022-07-25T12:05:15;94374.41;;;43.13;17.44
68889;BME280;55930;47.412;8.790;2022-07-25T12:07:51;94368.00;;;43.83;16.61
68889;BME280;55930;47.412;8.790;2022-07-25T12:10:31;94364.22;;;43.46;16.85
68889;BME280;55930;47.412;8.790;2022-07-25T12:12:57;94363.50;;;40.17;17.72
68889;BME280;55930;47.412;8.790;2022-07-25T12:17:53;94344.34;;;41.05;17.67
68889;BME280;55930;47.412;8.790;2022-07-25T12:20:27;94342.63;;;39.24;18.69
68889;BME280;55930;47.412;8.790;2022-07-25T12:22:54;94354.84;;;39.71;19.79
68889;BME280;55930;47.412;8.790;2022-07-25T12:25:21;94346.75;;;40.83;19.50
68889;BME280;55930;47.412;8.790;2022-07-25T12:27:47;94347.06;;;39.95;18.70
68889;BME280;55930;47.412;8.790;2022-07-25T12:30:15;94337.19;;;41.78;16.98
68889;BME280;55930;47.412;8.790;2022-07-25T12:32:44;94346.03;;;42.13;16.18
68889;BME280;55930;47.412;8.790;2022-07-25T12:35:11;94348.28;;;41.74;16.39
68889;BME280;55930;47.412;8.790;2022-07-25T12:37:37;94346.56;;;41.53;17.08
68889;BME280;55930;47.412;8.790;2022-07-25T12:40:04;94336.63;;;43.06;16.45
68889;BME280;55930;47.412;8.790;2022-07-25T12:42:32;94346.13;;;42.19;15.36
68889;BME280;55930;47.412;8.790;2022-07-25T12:44:57;94336.63;;;43.06;16.66
68889;BME280;55930;47.412;8.790;2022-07-25T12:47:23;94338.84;;;43.16;14.79
68889;BME280;55930;47.412;8.790;2022-07-25T12:49:51;94329.75;;;44.12;15.69
68889;BME280;55930;47.412;8.790;2022-07-25T12:52:17;94324.56;;;42.25;14.98
68889;BME280;55930;47.412;8.790;2022-07-25T12:54:43;94327.59;;;42.44;16.94
68889;BME280;55930;47.412;8.790;2022-07-25T12:57:12;94323.06;;;43.53;15.80
68889;BME280;55930;47.412;8.790;2022-07-25T12:59:38;94319.91;;;40.26;17.47
68889;BME280;55930;47.412;8.790;2022-07-25T13:02:04;94310.28;;;43.28;15.78
68889;BME280;55930;47.412;8.790;2022-07-25T13:04:30;94313.53;;;43.93;15.32
68889;BME280;55930;47.412;8.790;2022-07-25T13:06:56;94316.31;;;43.88;14.98
68889;BME280;55930;47.412;8.790;2022-07-25T13:09:22;94306.34;;;43.57;15.40
68889;BME280;55930;47.412;8.790;2022-07-25T13:11:48;94304.63;;;44.29;15.08
68889;BME280;55930;47.412;8.790;2022-07-25T13:14:16;94302.75;;;43.42;15.49
68889;BME280;55930;47.412;8.790;2022-07-25T13:16:43;94294.09;;;40.21;16.91